Old London, Texas
Current Conditions -  °F | °C
As of 6:55 PM on Wednesday 22 Oct 2014 (Local Time) from KRFI Reporting Station
Clear Clear  
Wind Chill: 18°   Ceiling: Unl
Heat Index: 18°   Visibility: 10mi
Dew Point: 13°   Wind: 0mph
Humidity: 71%   Direction: NA
Pressure: 30.11"   Gusts: NA
Location:  32.2538°N, 94.9427°W
Report Text: KRFI 222355Z AUTO 00000KT 10SM CLR 18/13 A3011 RMK AO2 T01840130 10262 20182
Loading
Personal Weather Stations






























Interactive Weather Map
Tropical Storm Tracking
New forecast layout! Learn more

10-Day Weather Forecast

Advertisements
Track Severe Weather on mobile